Time;durP1;ratioP1;P1;durP2;ratioP2;P2;SDS_P1;SDS_P2;PMS_P1;PMS_P2;Temp;Humidity;BMP_temperature;BMP_pressure;BME280_temperature;BME280_humidity;BME280_pressure;Samples;Min_cycle;Max_cycle;Signal;HPM_P1;HPM_P2
2021/08/17 00:02:11;;;;;;;9.30;2.40;;;;;;;13.91;98.40;100170.44;5201964;28;20031;-77
2021/08/17 00:04:41;;;;;;;11.05;2.08;;;;;;;13.96;98.04;100176.25;5224896;28;20049;-77
2021/08/17 00:07:12;;;;;;;10.23;2.20;;;;;;;13.95;98.60;100177.19;5228520;28;20425;-77
2021/08/17 00:09:42;;;;;;;12.00;2.38;;;;;;;14.03;97.77;100180.22;5227186;28;20287;-77
2021/08/17 00:12:13;;;;;;;8.25;2.30;;;;;;;14.09;98.28;100172.84;5228434;28;20520;-78
2021/08/17 00:14:43;;;;;;;10.15;2.40;;;;;;;14.06;98.63;100165.16;5210720;28;20511;-77
2021/08/17 00:17:14;;;;;;;12.52;2.50;;;;;;;14.08;99.05;100168.53;5230073;28;20025;-77
2021/08/17 00:19:46;;;;;;;10.57;2.33;;;;;;;14.03;99.48;100169.72;5228636;28;20029;-77
2021/08/17 00:22:22;;;;;;;13.63;2.70;;;;;;;14.04;99.85;100166.16;5228972;28;20025;-78
2021/08/17 00:24:52;;;;;;;10.45;2.70;;;;;;;13.96;99.47;100155.25;5229371;28;20024;-78
2021/08/17 00:27:23;;;;;;;10.68;2.45;;;;;;;14.09;98.93;100161.53;5212076;28;20073;-78
2021/08/17 00:29:53;;;;;;;11.60;2.63;;;;;;;14.11;99.14;100167.53;5228645;28;20027;-78
2021/08/17 00:32:24;;;;;;;10.02;2.00;;;;;;;14.09;98.80;100158.88;5230067;28;20279;-78
2021/08/17 00:34:56;;;;;;;11.80;2.10;;;;;;;14.07;99.29;100158.13;5213445;28;20469;-78
2021/08/17 00:37:26;;;;;;;15.75;2.45;;;;;;;14.08;99.43;100157.19;5222970;28;20537;-78
2021/08/17 00:39:57;;;;;;;15.38;2.47;;;;;;;13.97;100.00;100149.06;5224305;28;20023;-78
2021/08/17 00:42:44;;;;;;;12.55;2.60;;;;;;;14.05;100.00;100146.88;5245726;28;20099;-78
2021/08/17 00:45:21;;;;;;;8.52;2.10;;;;;;;14.05;100.00;100146.88;5242286;28;20032;-78
2021/08/17 00:47:52;;;;;;;9.65;2.22;;;;;;;14.01;100.00;100153.19;5240791;28;20052;-78
2021/08/17 00:50:25;;;;;;;15.70;2.83;;;;;;;14.00;100.00;100167.28;5244492;28;20039;-78
2021/08/17 00:52:56;;;;;;;14.98;2.60;;;;;;;13.95;100.00;100164.88;5227719;28;20063;-78
2021/08/17 00:55:27;;;;;;;14.13;2.33;;;;;;;13.87;100.00;100163.63;5244839;28;20439;-78
2021/08/17 00:57:58;;;;;;;13.00;2.45;;;;;;;13.88;100.00;100168.81;5225124;28;20025;-78
2021/08/17 01:00:29;;;;;;;12.52;2.22;;;;;;;13.85;100.00;100155.84;5219286;28;20024;-78
2021/08/17 01:02:59;;;;;;;10.32;2.22;;;;;;;13.90;100.00;100166.09;5244975;28;20035;-78
2021/08/17 01:05:30;;;;;;;12.13;2.30;;;;;;;13.84;100.00;100169.06;5244278;28;20111;-78
2021/08/17 01:08:00;;;;;;;15.90;2.83;;;;;;;13.77;100.00;100172.97;5239314;28;20029;-78
2021/08/17 01:10:31;;;;;;;11.02;2.20;;;;;;;13.87;100.00;100171.50;5244606;28;20386;-78
2021/08/17 01:13:01;;;;;;;12.38;2.53;;;;;;;13.82;100.00;100181.44;5245054;28;20085;-77
2021/08/17 01:15:31;;;;;;;12.40;2.40;;;;;;;13.71;100.00;100179.41;5244819;28;20295;-78
2021/08/17 01:18:06;;;;;;;9.50;2.53;;;;;;;13.65;100.00;100184.13;5240164;28;20302;-78
2021/08/17 01:20:36;;;;;;;13.63;2.47;;;;;;;13.72;100.00;100193.38;5243511;28;20031;-78
2021/08/17 01:23:07;;;;;;;8.98;2.20;;;;;;;13.69;100.00;100194.38;5244790;28;20036;-78
2021/08/17 01:25:40;;;;;;;12.52;2.70;;;;;;;13.78;100.00;100200.91;5245679;28;20025;-78
2021/08/17 01:28:10;;;;;;;12.52;2.53;;;;;;;13.68;100.00;100186.59;5249506;28;20024;-78
2021/08/17 01:30:41;;;;;;;11.75;2.58;;;;;;;13.72;100.00;100190.75;5231770;28;20028;-78
2021/08/17 01:33:15;;;;;;;12.52;2.65;;;;;;;13.66;100.00;100196.31;5251131;28;20410;-77
2021/08/17 01:35:45;;;;;;;11.73;2.40;;;;;;;13.68;100.00;100197.09;5249688;28;20389;-78
2021/08/17 01:38:15;;;;;;;13.23;2.60;;;;;;;13.72;100.00;100194.22;5245419;28;20103;-78
2021/08/17 01:40:45;;;;;;;10.70;2.58;;;;;;;13.80;100.00;100199.91;5250950;28;20028;-78
2021/08/17 01:43:16;;;;;;;11.93;2.28;;;;;;;13.73;100.00;100197.72;5249618;28;20086;-78
2021/08/17 01:46:00;;;;;;;9.63;2.40;;;;;;;13.75;100.00;100201.09;5247593;28;20036;-78
2021/08/17 01:48:32;;;;;;;10.18;2.13;;;;;;;13.78;100.00;100195.66;5241585;28;20094;-78
2021/08/17 01:51:02;;;;;;;9.73;2.30;;;;;;;13.76;100.00;100208.88;5231899;28;20024;-78
2021/08/17 01:53:33;;;;;;;6.93;2.10;;;;;;;13.80;100.00;100196.44;5233859;28;20025;-78
2021/08/17 01:56:11;;;;;;;10.75;2.42;;;;;;;13.88;100.00;100204.75;5251160;28;20196;-78
2021/08/17 01:58:42;;;;;;;9.48;2.38;;;;;;;13.85;100.00;100207.53;5250690;28;20020;-78
2021/08/17 02:01:13;;;;;;;7.82;2.05;;;;;;;13.87;100.00;100216.16;5246742;28;20031;-78
2021/08/17 02:03:43;;;;;;;11.98;2.63;;;;;;;13.92;100.00;100216.78;5231751;28;20024;-79
2021/08/17 02:06:16;;;;;;;10.75;2.40;;;;;;;13.86;100.00;100214.47;5246234;28;20036;-78
2021/08/17 02:08:47;;;;;;;15.48;3.00;;;;;;;13.96;100.00;100208.66;5249335;28;20024;-78
2021/08/17 02:11:17;;;;;;;12.15;2.40;;;;;;;13.97;100.00;100206.84;5247453;28;20028;-78
2021/08/17 02:13:47;;;;;;;10.52;2.55;;;;;;;13.97;100.00;100209.50;5251803;28;20028;-78
2021/08/17 02:16:18;;;;;;;13.93;2.87;;;;;;;14.01;100.00;100192.63;5251113;28;20036;-78
2021/08/17 02:18:48;;;;;;;13.77;2.70;;;;;;;13.95;100.00;100211.34;5247556;28;20747;-78
2021/08/17 02:21:18;;;;;;;12.60;2.85;;;;;;;13.98;100.00;100203.31;5249579;28;20048;-78
2021/08/17 02:23:49;;;;;;;13.48;2.72;;;;;;;14.00;100.00;100198.81;5251410;28;20033;-78
2021/08/17 02:26:19;;;;;;;13.88;2.90;;;;;;;14.09;100.00;100211.44;5250499;28;20386;-78
2021/08/17 02:28:49;;;;;;;10.95;2.40;;;;;;;14.06;100.00;100207.19;5251311;28;20033;-79
2021/08/17 02:31:19;;;;;;;12.43;2.67;;;;;;;14.02;100.00;100208.31;5250054;28;20025;-78
2021/08/17 02:33:50;;;;;;;12.88;2.58;;;;;;;14.14;100.00;100218.16;5235400;28;20119;-78
2021/08/17 02:36:20;;;;;;;12.10;2.80;;;;;;;14.05;100.00;100215.19;5250054;28;20024;-78
2021/08/17 02:38:50;;;;;;;15.93;2.97;;;;;;;14.07;100.00;100215.94;5247894;28;20031;-78
2021/08/17 02:41:21;;;;;;;16.98;3.20;;;;;;;14.15;100.00;100219.84;5251066;28;20023;-77
2021/08/17 02:43:51;;;;;;;16.67;3.17;;;;;;;14.12;100.00;100221.78;5251664;28;20021;-78
2021/08/17 02:46:21;;;;;;;18.70;3.47;;;;;;;14.04;100.00;100214.31;5249573;28;20336;-78
2021/08/17 02:48:52;;;;;;;17.27;3.40;;;;;;;14.12;100.00;100224.41;5228231;28;20394;-78
2021/08/17 02:51:22;;;;;;;23.40;4.10;;;;;;;14.18;100.00;100224.09;5228534;28;20154;-78
2021/08/17 02:53:52;;;;;;;12.73;3.17;;;;;;;14.21;100.00;100224.78;5246781;28;20032;-78
2021/08/17 02:56:23;;;;;;;18.85;3.85;;;;;;;14.22;100.00;100223.00;5246065;28;20115;-78
2021/08/17 02:58:53;;;;;;;16.58;3.20;;;;;;;14.22;100.00;100231.72;5244354;28;20028;-78
2021/08/17 03:01:24;;;;;;;18.05;3.40;;;;;;;14.25;100.00;100218.41;5246128;28;20178;-78
2021/08/17 03:03:54;;;;;;;16.85;3.30;;;;;;;14.26;100.00;100225.34;5246344;28;20367;-78
2021/08/17 03:06:24;;;;;;;19.17;3.53;;;;;;;14.23;100.00;100215.03;5244235;28;20024;-78
2021/08/17 03:08:55;;;;;;;23.85;4.40;;;;;;;14.31;100.00;100227.75;5242444;28;20024;-78
2021/08/17 03:11:25;;;;;;;19.33;3.95;;;;;;;14.23;100.00;100233.41;5245704;28;20055;-78
2021/08/17 03:13:57;;;;;;;22.13;4.55;;;;;;;14.18;100.00;100234.59;5228772;28;20170;-78
2021/08/17 03:16:27;;;;;;;19.52;3.95;;;;;;;14.11;100.00;100241.13;5246721;28;20020;-78
2021/08/17 03:18:58;;;;;;;21.70;4.63;;;;;;;14.08;100.00;100230.78;5242333;28;20099;-78
2021/08/17 03:21:28;;;;;;;22.63;4.20;;;;;;;14.02;100.00;100241.59;5246316;28;20043;-78
2021/08/17 03:23:59;;;;;;;26.13;4.55;;;;;;;14.02;100.00;100237.22;5220300;28;20060;-79
2021/08/17 03:26:29;;;;;;;22.20;4.70;;;;;;;13.97;100.00;100238.38;5246594;28;20538;-78
2021/08/17 03:29:00;;;;;;;26.05;4.47;;;;;;;14.04;100.00;100237.09;5246340;28;20302;-79
2021/08/17 03:31:30;;;;;;;21.98;4.63;;;;;;;13.99;100.00;100233.91;5246513;28;20051;-78
2021/08/17 03:34:00;;;;;;;20.35;4.45;;;;;;;14.03;100.00;100235.41;5246856;28;20027;-79
2021/08/17 03:36:31;;;;;;;22.15;4.22;;;;;;;14.05;100.00;100246.72;5243524;28;20032;-78
2021/08/17 03:39:01;;;;;;;20.38;4.28;;;;;;;14.02;100.00;100244.22;5242802;28;20091;-78
2021/08/17 03:41:31;;;;;;;19.05;4.03;;;;;;;14.09;100.00;100238.56;5246317;28;20032;-78
2021/08/17 03:44:02;;;;;;;19.00;4.28;;;;;;;14.11;100.00;100255.09;5246110;28;20482;-78
2021/08/17 03:46:32;;;;;;;22.35;4.57;;;;;;;14.14;100.00;100264.59;5226255;28;20035;-78
2021/08/17 03:49:02;;;;;;;26.80;4.43;;;;;;;14.07;100.00;100258.00;5241092;28;20047;-78
2021/08/17 03:51:33;;;;;;;21.05;4.05;;;;;;;14.17;100.00;100264.44;5245706;28;20035;-78
2021/08/17 03:54:03;;;;;;;23.58;4.18;;;;;;;14.23;100.00;100264.13;5245790;28;20115;-78
2021/08/17 03:56:33;;;;;;;19.40;4.03;;;;;;;14.21;100.00;100263.34;5245556;28;20028;-78
2021/08/17 03:59:04;;;;;;;21.88;4.00;;;;;;;14.18;100.00;100264.38;5225869;28;20019;-78
2021/08/17 04:01:34;;;;;;;17.02;3.92;;;;;;;14.19;100.00;100270.47;5245365;28;20032;-78
2021/08/17 04:04:04;;;;;;;23.30;4.15;;;;;;;14.13;100.00;100268.16;5245465;28;20031;-78
2021/08/17 04:06:34;;;;;;;15.52;3.65;;;;;;;14.19;100.00;100259.94;5243531;28;20028;-78
2021/08/17 04:09:05;;;;;;;24.02;4.07;;;;;;;14.23;100.00;100287.78;5244333;28;20081;-79
2021/08/17 04:11:35;;;;;;;19.02;4.15;;;;;;;14.18;100.00;100268.78;5245510;28;20024;-77
2021/08/17 04:14:05;;;;;;;22.42;3.55;;;;;;;14.13;100.00;100276.03;5245230;28;20025;-79
2021/08/17 04:16:36;;;;;;;21.08;4.07;;;;;;;14.16;100.00;100276.75;5244769;28;20028;-78
2021/08/17 04:19:06;;;;;;;19.25;3.47;;;;;;;14.16;100.00;100278.53;5223333;28;20020;-78
2021/08/17 04:21:36;;;;;;;19.80;3.72;;;;;;;14.21;100.00;100284.38;5227743;28;20070;-78
2021/08/17 04:24:07;;;;;;;23.02;3.67;;;;;;;14.17;100.00;100282.84;5244814;28;20382;-77
2021/08/17 04:26:37;;;;;;;21.75;3.65;;;;;;;14.18;100.00;100279.28;5244934;28;20173;-78
2021/08/17 04:29:07;;;;;;;23.70;4.40;;;;;;;14.21;100.00;100284.38;5244595;28;20029;-78
2021/08/17 04:31:38;;;;;;;21.02;3.63;;;;;;;14.16;100.00;100281.16;5226776;28;20058;-78
2021/08/17 04:34:08;;;;;;;16.55;3.55;;;;;;;14.17;100.00;100278.47;5244881;28;20495;-78
2021/08/17 04:36:39;;;;;;;21.63;3.78;;;;;;;14.22;100.00;100280.84;5223744;28;20060;-78
2021/08/17 04:39:09;;;;;;;21.63;3.60;;;;;;;14.21;100.00;100287.00;5241916;28;20501;-79
2021/08/17 04:41:39;;;;;;;22.02;3.90;;;;;;;14.19;100.00;100291.50;5244499;28;20036;-78
2021/08/17 04:44:10;;;;;;;17.52;3.95;;;;;;;14.15;100.00;100289.94;5244867;28;20130;-78
2021/08/17 04:46:40;;;;;;;16.23;3.63;;;;;;;14.08;100.00;100299.09;5226016;28;20036;-78
2021/08/17 04:49:10;;;;;;;19.17;3.60;;;;;;;14.05;100.00;100307.16;5240080;28;20118;-78
2021/08/17 04:51:41;;;;;;;21.95;4.13;;;;;;;14.08;100.00;100309.63;5226236;28;20390;-78
2021/08/17 04:54:11;;;;;;;19.92;3.60;;;;;;;14.06;100.00;100309.69;5244574;28;20043;-78
2021/08/17 04:56:42;;;;;;;19.63;3.90;;;;;;;14.01;100.00;100319.59;5226449;28;20036;-78
2021/08/17 04:59:12;;;;;;;21.35;3.75;;;;;;;13.85;100.00;100316.09;5243655;28;20374;-78
2021/08/17 05:01:42;;;;;;;20.52;4.05;;;;;;;13.90;100.00;100326.38;5226260;28;20246;-78
2021/08/17 05:04:12;;;;;;;28.38;4.28;;;;;;;13.94;100.00;100322.63;5244566;28;20571;-78
2021/08/17 05:06:43;;;;;;;17.55;3.67;;;;;;;13.96;100.00;100326.03;5241546;28;20112;-78
2021/08/17 05:09:13;;;;;;;20.60;3.72;;;;;;;13.96;100.00;100326.03;5236903;28;20021;-77
2021/08/17 05:11:43;;;;;;;20.23;3.70;;;;;;;13.99;100.00;100331.13;5243201;28;20108;-77
2021/08/17 05:14:14;;;;;;;17.47;3.47;;;;;;;14.02;100.00;100325.69;5243675;28;20052;-77
2021/08/17 05:16:44;;;;;;;18.58;3.65;;;;;;;14.07;100.00;100344.72;5242369;28;20267;-78
2021/08/17 05:19:15;;;;;;;18.27;3.45;;;;;;;14.11;100.00;100333.94;5217049;28;20052;-78
2021/08/17 05:21:45;;;;;;;16.25;3.65;;;;;;;14.19;100.00;100344.06;5244036;28;20377;-77
2021/08/17 05:24:15;;;;;;;17.95;3.30;;;;;;;14.15;100.00;100353.03;5243688;28;20031;-78
2021/08/17 05:26:45;;;;;;;17.33;3.75;;;;;;;14.13;100.00;100354.88;5242731;28;20025;-78
2021/08/17 05:29:15;;;;;;;17.70;3.67;;;;;;;14.14;100.00;100352.19;5243443;28;20056;-78
2021/08/17 05:31:46;;;;;;;20.55;3.55;;;;;;;14.08;100.00;100349.03;5225228;28;20274;-78
2021/08/17 05:34:16;;;;;;;21.10;3.58;;;;;;;14.12;100.00;100355.81;5243765;28;20024;-78
2021/08/17 05:36:46;;;;;;;17.38;3.08;;;;;;;14.09;100.00;100358.63;5223154;28;20094;-77
2021/08/17 05:39:17;;;;;;;16.23;3.75;;;;;;;14.14;100.00;100373.22;5232885;28;20541;-77
2021/08/17 05:41:47;;;;;;;14.50;3.20;;;;;;;14.20;100.00;100362.41;5243788;28;20024;-78
2021/08/17 05:44:17;;;;;;;12.75;3.58;;;;;;;14.35;100.00;100365.97;5243623;28;20074;-77
2021/08/17 05:46:48;;;;;;;19.20;3.40;;;;;;;14.37;100.00;100375.47;5238412;28;20486;-78
2021/08/17 05:49:18;;;;;;;15.38;3.10;;;;;;;14.37;100.00;100380.75;5236200;28;20032;-78
2021/08/17 05:51:48;;;;;;;17.05;2.97;;;;;;;14.42;100.00;100373.44;5225641;28;20086;-78
2021/08/17 05:54:18;;;;;;;15.43;3.20;;;;;;;14.40;100.00;100377.09;5244294;28;20506;-78
2021/08/17 05:56:50;;;;;;;16.45;2.97;;;;;;;14.41;100.00;100381.44;5242915;28;20029;-78
2021/08/17 05:59:20;;;;;;;16.95;3.85;;;;;;;14.34;100.00;100378.28;5241816;28;20398;-78
2021/08/17 06:01:51;;;;;;;18.90;3.70;;;;;;;14.45;100.00;100382.97;5242484;28;20040;-78
2021/08/17 06:04:22;;;;;;;14.95;3.20;;;;;;;14.62;100.00;100380.25;5241738;28;20016;-77
2021/08/17 06:06:53;;;;;;;20.20;3.15;;;;;;;14.70;100.00;100368.38;5234915;28;20032;-78
2021/08/17 06:09:24;;;;;;;19.02;3.42;;;;;;;14.93;99.22;100381.09;5222895;28;20020;-78
2021/08/17 06:11:57;;;;;;;17.23;2.90;;;;;;;15.02;97.63;100380.59;5226520;28;20386;-78
2021/08/17 06:14:27;;;;;;;16.60;3.20;;;;;;;14.89;97.77;100380.44;5247370;28;20069;-78
2021/08/17 06:16:58;;;;;;;13.53;2.73;;;;;;;14.77;97.21;100384.69;5242500;28;20024;-78
2021/08/17 06:19:28;;;;;;;15.82;2.95;;;;;;;14.84;97.22;100379.81;5240647;28;20312;-80
2021/08/17 06:21:58;;;;;;;14.90;2.83;;;;;;;14.83;97.57;100385.19;5236392;28;20028;-79
2021/08/17 06:24:28;;;;;;;17.05;3.13;;;;;;;14.86;98.24;100388.47;5220790;28;20055;-78
2021/08/17 06:26:59;;;;;;;22.05;3.40;;;;;;;14.86;98.00;100390.28;5233431;28;20024;-78
2021/08/17 06:29:29;;;;;;;17.83;2.97;;;;;;;14.86;97.64;100393.72;5239448;28;20040;-78
2021/08/17 06:31:59;;;;;;;13.23;3.22;;;;;;;14.98;96.97;100392.22;5238207;28;20049;-78
2021/08/17 06:34:30;;;;;;;17.08;4.18;;;;;;;14.94;96.53;100398.56;5257152;28;20027;-79
2021/08/17 06:37:00;;;;;;;16.63;3.00;;;;;;;14.91;96.46;100404.88;5252400;28;20052;-77
2021/08/17 06:39:30;;;;;;;13.77;2.95;;;;;;;15.01;97.05;100406.03;5237459;28;20028;-77
2021/08/17 06:42:01;;;;;;;16.17;2.70;;;;;;;14.96;96.24;100402.81;5245364;28;20029;-78
2021/08/17 06:44:31;;;;;;;17.30;3.40;;;;;;;15.02;96.73;100401.63;5238962;28;20033;-78
2021/08/17 06:47:05;;;;;;;14.48;2.83;;;;;;;15.09;96.54;100409.09;5221450;28;20048;-79
2021/08/17 06:49:35;;;;;;;16.83;2.95;;;;;;;15.16;95.75;100404.34;5241868;28;20032;-79
2021/08/17 06:52:06;;;;;;;12.73;2.55;;;;;;;15.21;94.34;100410.19;5236366;28;20056;-79
2021/08/17 06:54:36;;;;;;;11.82;2.40;;;;;;;15.52;94.37;100411.00;5235014;28;20051;-79
2021/08/17 06:57:07;;;;;;;15.80;2.95;;;;;;;15.59;92.53;100404.44;5244777;28;20411;-79
2021/08/17 06:59:37;;;;;;;18.58;3.03;;;;;;;15.49;92.97;100424.34;5234088;28;20028;-79
2021/08/17 07:02:07;;;;;;;18.35;3.03;;;;;;;15.44;92.37;100410.59;5244787;28;20039;-79
2021/08/17 07:04:37;;;;;;;16.77;2.63;;;;;;;15.58;92.84;100413.28;5223523;28;20077;-78
2021/08/17 07:07:08;;;;;;;20.35;3.20;;;;;;;15.47;91.92;100399.88;5218401;28;20029;-78
2021/08/17 07:09:38;;;;;;;13.07;2.38;;;;;;;15.34;92.27;100416.50;5222883;28;20039;-78
2021/08/17 07:12:10;;;;;;;13.60;2.95;;;;;;;15.31;92.23;100417.50;5221740;28;20115;-78
2021/08/17 07:14:41;;;;;;;19.92;2.80;;;;;;;15.29;92.19;100416.75;5234390;28;20028;-78
2021/08/17 07:17:11;;;;;;;15.38;2.60;;;;;;;15.13;93.01;100431.69;5231093;28;20066;-78
2021/08/17 07:19:41;;;;;;;13.40;2.78;;;;;;;15.22;92.08;100436.41;5248663;28;20032;-77
2021/08/17 07:22:12;;;;;;;16.35;3.05;;;;;;;15.36;92.61;100430.41;5233636;28;20020;-79
2021/08/17 07:24:42;;;;;;;18.88;3.20;;;;;;;15.65;92.06;100427.78;5251455;28;20024;-78
2021/08/17 07:27:12;;;;;;;16.40;2.92;;;;;;;15.52;91.15;100428.59;5250174;28;20024;-79
2021/08/17 07:29:43;;;;;;;15.18;2.78;;;;;;;15.59;91.54;100417.63;5245331;28;20111;-81
2021/08/17 07:32:13;;;;;;;16.50;2.75;;;;;;;15.57;92.03;100432.63;5230580;28;20035;-79
2021/08/17 07:34:43;;;;;;;11.15;2.28;;;;;;;15.77;90.61;100432.34;5251997;28;20031;-81
2021/08/17 07:37:14;;;;;;;14.63;2.65;;;;;;;15.99;90.11;100430.13;5248836;28;20055;-80
2021/08/17 07:39:44;;;;;;;16.75;2.20;;;;;;;16.21;88.68;100429.69;5250657;28;20048;-81
2021/08/17 07:42:14;;;;;;;14.35;2.33;;;;;;;16.33;88.20;100423.63;5249069;28;20035;-81
2021/08/17 07:44:45;;;;;;;16.55;2.40;;;;;;;16.25;88.31;100432.00;5252071;28;20591;-80
2021/08/17 07:47:15;;;;;;;14.07;2.60;;;;;;;16.51;86.72;100433.94;5231574;28;20276;-78
2021/08/17 07:49:45;;;;;;;10.90;2.40;;;;;;;16.34;86.96;100434.09;5231193;28;20610;-80
2021/08/17 07:52:16;;;;;;;12.90;2.40;;;;;;;16.36;87.18;100424.34;5250248;28;20056;-81
2021/08/17 07:54:46;;;;;;;15.45;2.88;;;;;;;16.25;86.43;100426.75;5233113;28;20028;-80
2021/08/17 07:57:16;;;;;;;12.63;2.55;;;;;;;16.34;88.00;100431.47;5220906;28;20029;-80
2021/08/17 07:59:47;;;;;;;17.58;3.13;;;;;;;16.24;87.87;100425.06;5223684;28;20031;-81
2021/08/17 08:02:17;;;;;;;18.98;2.83;;;;;;;16.21;87.76;100430.50;5225324;28;20391;-81
2021/08/17 08:04:47;;;;;;;15.48;2.58;;;;;;;16.02;88.96;100432.56;5244599;28;20039;-81
2021/08/17 08:07:17;;;;;;;13.63;2.60;;;;;;;15.74;88.31;100437.78;5240595;28;20078;-81
2021/08/17 08:09:48;;;;;;;15.27;2.58;;;;;;;16.00;88.84;100439.72;5244350;28;20029;-80
2021/08/17 08:12:18;;;;;;;12.85;2.70;;;;;;;15.87;88.00;100438.75;5226164;28;20047;-80
2021/08/17 08:14:48;;;;;;;14.70;2.58;;;;;;;15.82;87.92;100443.44;5235746;28;20595;-81
2021/08/17 08:17:19;;;;;;;17.13;2.92;;;;;;;16.08;87.81;100447.19;5213253;28;20070;-79
2021/08/17 08:19:49;;;;;;;16.80;2.10;;;;;;;16.21;86.20;100451.63;5217702;28;20020;-78
2021/08/17 08:22:19;;;;;;;11.55;2.45;;;;;;;17.01;84.96;100439.53;5218806;28;20037;-79
2021/08/17 08:24:50;;;;;;;14.88;2.38;;;;;;;17.21;82.08;100442.59;5249105;28;20028;-78
2021/08/17 08:27:20;;;;;;;13.35;2.58;;;;;;;16.89;83.02;100457.00;5236147;28;20048;-80
2021/08/17 08:29:50;;;;;;;15.02;2.83;;;;;;;16.67;82.28;100452.31;5240659;28;20170;-79
2021/08/17 08:32:21;;;;;;;13.43;2.58;;;;;;;16.63;82.99;100438.47;5248053;28;20047;-77
2021/08/17 08:34:51;;;;;;;16.20;2.85;;;;;;;16.63;83.50;100442.88;5226530;28;20025;-80
2021/08/17 08:37:21;;;;;;;13.95;2.80;;;;;;;16.69;83.47;100442.53;5239595;28;20031;-79
2021/08/17 08:39:54;;;;;;;17.08;2.70;;;;;;;17.40;81.97;100437.84;5242189;28;20048;-81
2021/08/17 08:42:25;;;;;;;15.95;2.40;;;;;;;18.00;77.80;100428.44;5241366;28;20021;-79
2021/08/17 08:44:56;;;;;;;12.63;2.40;;;;;;;20.21;72.28;100421.81;5228129;28;20047;-80
2021/08/17 08:47:27;;;;;;;15.18;2.83;;;;;;;21.47;69.81;100423.00;5242558;28;20024;-81
2021/08/17 08:49:59;;;;;;;12.77;2.25;;;;;;;20.96;68.55;100421.94;5225969;28;20363;-81
2021/08/17 08:52:30;;;;;;;14.57;2.60;;;;;;;20.88;68.56;100421.72;5219630;28;20028;-81
2021/08/17 08:55:03;;;;;;;10.98;2.40;;;;;;;21.21;65.81;100412.84;5224731;28;20157;-81
2021/08/17 08:57:34;;;;;;;12.40;2.42;;;;;;;22.35;64.83;100419.03;5225035;28;20024;-82
2021/08/17 09:00:08;;;;;;;12.52;2.40;;;;;;;21.74;64.93;100414.59;5247724;28;20521;-79
2021/08/17 09:02:38;;;;;;;11.32;2.50;;;;;;;21.36;67.22;100430.16;5228900;28;20036;-79
2021/08/17 09:05:09;;;;;;;12.10;2.65;;;;;;;19.83;69.57;100444.22;5246282;28;20428;-80
2021/08/17 09:07:46;;;;;;;15.05;2.90;;;;;;;18.71;74.01;100447.31;5225431;28;20032;-82
2021/08/17 09:10:16;;;;;;;10.10;2.47;;;;;;;18.41;75.34;100442.38;5228507;28;20038;-81
2021/08/17 09:12:53;;;;;;;14.87;3.00;;;;;;;18.06;75.47;100445.69;5224311;28;20115;-80
2021/08/17 09:15:32;;;;;;;14.00;2.30;;;;;;;17.95;76.03;100454.38;5228019;28;20038;-78
2021/08/17 09:18:05;;;;;;;10.35;2.55;;;;;;;17.93;77.09;100458.06;5218252;28;20067;-80
2021/08/17 09:20:42;;;;;;;13.50;2.80;;;;;;;17.89;77.75;100459.22;5227496;28;20040;-79
2021/08/17 09:23:24;;;;;;;14.73;2.60;;;;;;;17.83;77.85;100443.78;5247460;28;20344;-81
2021/08/17 09:25:57;;;;;;;14.90;2.95;;;;;;;17.95;77.45;100440.28;5229011;28;20124;-80
2021/08/17 09:28:35;;;;;;;12.85;2.50;;;;;;;18.09;77.00;100443.72;5229020;28;20058;-81
2021/08/17 09:31:31;;;;;;;20.17;3.00;;;;;;;18.08;77.67;100442.00;5239972;28;20102;-81
2021/08/17 09:34:02;;;;;;;14.73;2.55;;;;;;;18.08;78.58;100446.44;5240440;28;20025;-78
2021/08/17 09:36:40;;;;;;;16.52;3.28;;;;;;;17.63;77.76;100444.25;5226608;28;20039;-81
2021/08/17 09:39:25;;;;;;;12.35;2.85;;;;;;;17.92;76.70;100438.72;5225737;28;20024;-78
2021/08/17 09:42:09;;;;;;;15.50;3.25;;;;;;;18.30;77.14;100436.09;5243873;28;20033;-80
2021/08/17 09:44:41;;;;;;;12.63;3.08;;;;;;;18.40;75.67;100439.81;5242320;28;20059;-78
2021/08/17 09:47:12;;;;;;;16.20;3.28;;;;;;;17.74;76.88;100437.31;5229509;28;20032;-80
2021/08/17 09:49:42;;;;;;;14.38;2.80;;;;;;;17.68;77.75;100437.69;5229619;28;20135;-79
2021/08/17 09:52:17;;;;;;;15.10;3.00;;;;;;;17.92;78.14;100446.66;5247345;28;20101;-81
2021/08/17 09:54:49;;;;;;;14.23;2.90;;;;;;;18.05;78.37;100441.38;5233325;28;20298;-81
2021/08/17 09:57:19;;;;;;;12.52;3.05;;;;;;;17.79;77.46;100442.28;5228513;28;20020;-80
2021/08/17 09:59:49;;;;;;;10.37;3.13;;;;;;;18.18;77.18;100429.84;5230820;28;20078;-78
2021/08/17 10:02:20;;;;;;;14.30;3.08;;;;;;;18.21;75.92;100431.44;5251315;28;20279;-81
2021/08/17 10:04:51;;;;;;;12.52;3.15;;;;;;;18.69;75.89;100433.34;5250953;28;20029;-78
2021/08/17 10:07:21;;;;;;;18.08;3.40;;;;;;;18.74;75.52;100430.25;5229794;28;20069;-80
2021/08/17 10:09:52;;;;;;;13.05;3.33;;;;;;;18.76;74.12;100430.97;5227205;28;20147;-81
2021/08/17 10:12:22;;;;;;;12.73;3.10;;;;;;;18.76;74.53;100435.44;5230121;28;20541;-81
2021/08/17 10:14:52;;;;;;;16.15;3.78;;;;;;;18.51;75.40;100445.22;5233537;28;20108;-80
2021/08/17 10:17:23;;;;;;;22.40;3.78;;;;;;;18.03;76.52;100438.81;5246776;28;20049;-79
2021/08/17 10:19:55;;;;;;;14.18;3.58;;;;;;;17.92;77.20;100445.78;5226690;28;20096;-77
2021/08/17 10:22:26;;;;;;;11.05;3.35;;;;;;;17.89;77.36;100440.72;5248380;28;20463;-81
2021/08/17 10:25:08;;;;;;;14.50;3.80;;;;;;;17.80;80.15;100444.00;5250440;28;20106;-79
2021/08/17 10:27:39;;;;;;;13.35;4.32;;;;;;;18.00;80.15;100443.47;5226671;28;20101;-79
2021/08/17 10:30:22;;;;;;;13.48;3.88;;;;;;;18.47;78.64;100431.34;5227997;28;20032;-78
2021/08/17 10:32:57;;;;;;;14.95;3.60;;;;;;;18.61;77.64;100435.66;5250146;28;20036;-81
2021/08/17 10:35:27;;;;;;;14.82;4.15;;;;;;;18.58;77.42;100436.75;5249829;28;20494;-79
2021/08/17 10:38:07;;;;;;;12.25;3.65;;;;;;;18.28;77.11;100444.16;5227175;28;20039;-80
2021/08/17 10:40:52;;;;;;;18.60;3.90;;;;;;;18.07;77.89;100444.75;5226309;28;20158;-79
2021/08/17 10:43:32;;;;;;;13.90;4.07;;;;;;;18.08;78.86;100447.31;5247934;28;20284;-81
2021/08/17 10:46:09;;;;;;;12.02;3.92;;;;;;;17.89;78.71;100456.56;5242327;28;20051;-81
2021/08/17 10:48:45;;;;;;;19.27;4.15;;;;;;;17.94;78.79;100454.47;5243216;28;20419;-79
2021/08/17 10:51:18;;;;;;;13.77;3.90;;;;;;;17.96;78.84;100457.84;5247102;28;20147;-80
2021/08/17 10:54:14;;;;;;;16.17;4.38;;;;;;;18.14;77.92;100449.53;5231861;28;20032;-78
2021/08/17 10:56:48;;;;;;;15.13;4.53;;;;;;;18.34;77.22;100456.13;5223939;28;20093;-81
2021/08/17 10:59:38;;;;;;;12.93;4.68;;;;;;;18.31;77.05;100451.06;5247789;28;20270;-81
2021/08/17 11:02:10;;;;;;;13.88;4.25;;;;;;;18.21;77.72;100456.06;5226269;28;20428;-80
2021/08/17 11:04:43;;;;;;;13.70;4.40;;;;;;;17.98;78.27;100453.31;5248691;28;20435;-81
2021/08/17 11:07:32;;;;;;;12.68;4.30;;;;;;;17.92;79.08;100466.94;5224870;28;20100;-80
2021/08/17 11:10:05;;;;;;;10.60;4.47;;;;;;;17.81;78.81;100459.72;5237700;28;20024;-78
2021/08/17 11:12:38;;;;;;;16.70;4.40;;;;;;;17.81;79.34;100462.38;5228959;28;20041;-79
2021/08/17 11:15:09;;;;;;;9.90;4.40;;;;;;;17.90;79.17;100464.41;5250795;28;20077;-79
2021/08/17 11:17:40;;;;;;;12.68;4.40;;;;;;;17.97;79.62;100454.28;5227533;28;20094;-80
2021/08/17 11:20:10;;;;;;;15.52;4.63;;;;;;;17.88;78.96;100450.47;5227446;28;20685;-79
2021/08/17 11:22:41;;;;;;;13.77;5.00;;;;;;;17.78;78.92;100454.66;5229120;28;20129;-79
2021/08/17 11:25:11;;;;;;;14.93;4.78;;;;;;;17.76;78.85;100445.13;5248461;28;20021;-80
2021/08/17 11:27:43;;;;;;;12.93;5.13;;;;;;;17.64;78.78;100443.31;5242820;28;20103;-80
2021/08/17 11:30:16;;;;;;;10.98;4.57;;;;;;;17.69;76.76;100449.13;5247573;28;20467;-80
2021/08/17 11:32:55;;;;;;;11.30;4.68;;;;;;;17.84;76.17;100448.94;5247200;28;20032;-81
2021/08/17 11:35:29;;;;;;;11.85;4.95;;;;;;;18.09;75.32;100449.00;5225437;28;20020;-79